Wetterdaten: Woche 11.04.05 - 17.04.05 (KW15)
Datum Zeit Temperatur Luftfeuchte Luftdruck Niederschlag Wind Richtung Sonne Solar Taupunkt Windchill
11.04.2005 00:00 5.6 C 69 % 1026.1 hPa 0.0 l/m 4.1 km/h (1 Bft) O-SO 0.00 h 0 W/m 0.3 C 4.9 C
11.04.2005 01:00 5.0 C 72 % 1025.5 hPa 0.0 l/m 1.3 km/h (1 Bft) O-SO 0.00 h 0 W/m 0.3 C 4.8 C
11.04.2005 02:00 4.4 C 76 % 1025.2 hPa 0.0 l/m 1.4 km/h (1 Bft) O-SO 0.00 h 0 W/m 0.4 C 4.1 C
11.04.2005 03:00 4.5 C 75 % 1024.7 hPa 0.0 l/m 4.3 km/h (1 Bft) O-SO 0.00 h 0 W/m 0.4 C 3.6 C
11.04.2005 04:00 4.7 C 71 % 1024.1 hPa 0.0 l/m 0.2 km/h (0 Bft) N-NO 0.00 h 0 W/m -0.1 C 4.7 C
11.04.2005 05:00 5.0 C 68 % 1023.2 hPa 0.0 l/m 1.7 km/h (1 Bft) N-NO 0.00 h 0 W/m -0.3 C 4.7 C
11.04.2005 06:00 4.7 C 70 % 1023.1 hPa 0.0 l/m 1.0 km/h (0 Bft) O 0.00 h 5 W/m -0.4 C 4.5 C
11.04.2005 07:00 5.4 C 67 % 1023.1 hPa 0.0 l/m 2.4 km/h (1 Bft) O-NO 0.00 h 33 W/m -0.4 C 5.0 C
11.04.2005 08:00 6.2 C 64 % 1023.9 hPa 0.0 l/m 12.1 km/h (2 Bft) O-NO 0.00 h 115 W/m -0.0 C 3.9 C
11.04.2005 09:00 7.1 C 61 % 1023.8 hPa 0.0 l/m 16.3 km/h (3 Bft) O-NO 0.28 h 251 W/m 0.0 C 4.4 C
11.04.2005 10:00 8.2 C 57 % 1023.7 hPa 0.0 l/m 15.7 km/h (3 Bft) O 0.32 h 344 W/m 0.2 C 5.8 C
11.04.2005 11:00 10.0 C 53 % 1023.4 hPa 0.0 l/m 14.5 km/h (3 Bft) NO 1.00 h 583 W/m 0.8 C 9.2 C
11.04.2005 12:00 11.1 C 49 % 1023.2 hPa 0.0 l/m 17.7 km/h (3 Bft) NO 0.80 h 667 W/m 0.7 C 11.1 C
11.04.2005 13:00 10.9 C 48 % 1023.3 hPa 0.0 l/m 17.1 km/h (3 Bft) NO 0.32 h 497 W/m 0.4 C 10.9 C
11.04.2005 14:00 11.6 C 45 % 1023.0 hPa 0.0 l/m 15.4 km/h (3 Bft) O 1.00 h 647 W/m 0.2 C 11.6 C
11.04.2005 15:00 13.1 C 40 % 1021.9 hPa 0.0 l/m 24.3 km/h (4 Bft) O-SO 0.95 h 721 W/m -0.3 C 13.1 C
11.04.2005 16:00 13.5 C 38 % 1021.9 hPa 0.0 l/m 17.5 km/h (3 Bft) NO 0.65 h 467 W/m -0.4 C 13.5 C
11.04.2005 17:00 13.3 C 40 % 1021.9 hPa 0.0 l/m 14.5 km/h (3 Bft) O 0.38 h 293 W/m -0.1 C 13.3 C
11.04.2005 18:00 12.8 C 39 % 1022.0 hPa 0.0 l/m 24.2 km/h (4 Bft) O-SO 0.90 h 330 W/m -0.9 C 12.8 C
11.04.2005 19:00 11.6 C 42 % 1022.1 hPa 0.0 l/m 17.5 km/h (3 Bft) O-SO 1.00 h 118 W/m -1.0 C 11.6 C
11.04.2005 20:00 10.2 C 46 % 1022.5 hPa 0.0 l/m 8.8 km/h (2 Bft) N-NO 0.00 h 15 W/m -0.9 C 9.8 C
11.04.2005 21:00 9.9 C 49 % 1023.4 hPa 0.0 l/m 7.0 km/h (2 Bft) O 0.00 h 0 W/m -0.2 C 9.5 C
11.04.2005 22:00 9.8 C 52 % 1022.5 hPa 0.0 l/m 5.2 km/h (1 Bft) N-NO 0.00 h 0 W/m 0.3 C 9.2 C
11.04.2005 23:00 9.5 C 55 % 1022.1 hPa 0.0 l/m 3.8 km/h (1 Bft) N-NO 0.00 h 0 W/m 0.9 C 9.1 C
12.04.2005 00:00 9.2 C 56 % 1021.4 hPa 0.0 l/m 5.7 km/h (1 Bft) N-NO 0.00 h 0 W/m 0.9 C 8.5 C
12.04.2005 01:00 8.5 C 60 % 1021.2 hPa 0.0 l/m 5.8 km/h (2 Bft) NO 0.00 h 0 W/m 1.2 C 7.8 C
12.04.2005 02:00 7.8 C 64 % 1020.1 hPa 0.0 l/m 3.7 km/h (1 Bft) O 0.00 h 0 W/m 1.4 C 7.2 C
12.04.2005 03:00 7.4 C 66 % 1019.6 hPa 0.0 l/m 2.1 km/h (1 Bft) O 0.00 h 0 W/m 1.5 C 7.2 C
12.04.2005 04:00 7.4 C 67 % 1019.6 hPa 0.0 l/m 1.3 km/h (1 Bft) N-NO 0.00 h 0 W/m 1.6 C 7.2 C
12.04.2005 05:00 7.5 C 66 % 1018.7 hPa 0.0 l/m 0.4 km/h (0 Bft) O-SO 0.00 h 0 W/m 1.7 C 7.5 C
12.04.2005 06:00 7.4 C 68 % 1018.6 hPa 0.0 l/m 0.9 km/h (0 Bft) O-NO 0.00 h 4 W/m 1.9 C 7.2 C
12.04.2005 07:00 7.2 C 72 % 1018.6 hPa 0.0 l/m 0.1 km/h (0 Bft) N 0.00 h 23 W/m 2.4 C 7.2 C
12.04.2005 08:00 8.0 C 70 % 1019.2 hPa 0.0 l/m 0.0 km/h (0 Bft) N 0.00 h 77 W/m 2.8 C 8.0 C
12.04.2005 09:00 8.5 C 66 % 1019.5 hPa 0.0 l/m 0.3 km/h (0 Bft) N-NO 0.00 h 89 W/m 2.6 C 8.5 C
12.04.2005 10:00 9.2 C 65 % 1019.3 hPa 0.0 l/m 1.0 km/h (0 Bft) NO 0.00 h 188 W/m 3.0 C 9.1 C
12.04.2005 11:00 10.5 C 62 % 1019.0 hPa 0.0 l/m 2.3 km/h (1 Bft) O-SO 0.10 h 306 W/m 3.5 C 10.5 C
12.04.2005 12:00 10.1 C 63 % 1018.2 hPa 0.0 l/m 2.8 km/h (1 Bft) W-NW 0.00 h 146 W/m 3.4 C 10.0 C
12.04.2005 13:00 10.9 C 64 % 1018.1 hPa 0.0 l/m 7.1 km/h (2 Bft) O-SO 0.00 h 239 W/m 4.4 C 10.9 C
12.04.2005 14:00 10.9 C 63 % 1018.1 hPa 0.0 l/m 4.4 km/h (1 Bft) O-SO 0.00 h 149 W/m 4.2 C 10.9 C
12.04.2005 15:00 10.9 C 61 % 1018.1 hPa 0.0 l/m 1.5 km/h (1 Bft) O-NO 0.00 h 151 W/m 3.8 C 10.9 C
12.04.2005 16:00 10.8 C 61 % 1017.5 hPa 0.0 l/m 1.8 km/h (1 Bft) W-NW 0.00 h 98 W/m 3.7 C 10.8 C
12.04.2005 17:00 10.5 C 64 % 1017.1 hPa 0.0 l/m 3.2 km/h (1 Bft) W-NW 0.00 h 58 W/m 4.1 C 10.5 C
12.04.2005 18:00 10.0 C 68 % 1017.2 hPa 0.0 l/m 4.6 km/h (1 Bft) W-NW 0.00 h 18 W/m 4.3 C 9.9 C
12.04.2005 19:00 9.6 C 69 % 1017.2 hPa 0.0 l/m 1.2 km/h (1 Bft) W-NW 0.00 h 3 W/m 4.2 C 9.5 C
12.04.2005 20:00 9.2 C 73 % 1017.3 hPa 0.0 l/m 0.8 km/h (0 Bft) SO 0.00 h 1 W/m 4.6 C 9.2 C
12.04.2005 21:00 8.9 C 76 % 1017.5 hPa 0.0 l/m 1.0 km/h (0 Bft) SO 0.00 h 0 W/m 4.9 C 8.8 C
12.04.2005 22:00 8.7 C 78 % 1017.4 hPa 0.0 l/m 0.0 km/h (0 Bft) N 0.00 h 0 W/m 5.0 C 8.7 C
12.04.2005 23:00 8.4 C 81 % 1017.4 hPa 0.0 l/m 0.0 km/h (0 Bft) N 0.00 h 0 W/m 5.3 C 8.4 C
13.04.2005 00:00 8.0 C 85 % 1017.4 hPa 0.0 l/m 0.0 km/h (0 Bft) N 0.00 h 0 W/m 5.7 C 8.0 C
13.04.2005 01:00 7.7 C 89 % 1016.8 hPa 0.0 l/m 0.6 km/h (0 Bft) SO 0.00 h 0 W/m 6.0 C 7.6 C
13.04.2005 02:00 7.3 C 93 % 1016.5 hPa 0.0 l/m 0.0 km/h (0 Bft) N 0.00 h 0 W/m 6.3 C 7.3 C
13.04.2005 03:00 7.2 C 94 % 1016.3 hPa 0.0 l/m 0.0 km/h (0 Bft) SO 0.00 h 0 W/m 6.2 C 7.2 C
13.04.2005 04:00 6.9 C 93 % 1015.5 hPa 0.0 l/m 0.2 km/h (0 Bft) SO 0.00 h 0 W/m 5.9 C 6.9 C
13.04.2005 05:00 6.8 C 96 % 1015.3 hPa 0.0 l/m 0.0 km/h (0 Bft) N 0.00 h 0 W/m 6.2 C 6.8 C
13.04.2005 06:00 6.7 C 97 % 1015.0 hPa 0.0 l/m 0.0 km/h (0 Bft) N 0.00 h 2 W/m 6.3 C 6.7 C
13.04.2005 07:00 6.8 C 97 % 1015.2 hPa 0.0 l/m 0.0 km/h (0 Bft) N 0.00 h 9 W/m 6.3 C 6.8 C
13.04.2005 08:00 7.1 C 95 % 1014.5 hPa 0.0 l/m 0.0 km/h (0 Bft) N 0.00 h 23 W/m 6.3 C 7.1 C
13.04.2005 09:00 7.7 C 91 % 1014.4 hPa 0.0 l/m 0.0 km/h (0 Bft) N 0.00 h 57 W/m 6.3 C 7.7 C
13.04.2005 10:00 8.3 C 86 % 1014.3 hPa 0.0 l/m 0.0 km/h (0 Bft) N 0.00 h 92 W/m 6.0 C 8.3 C
13.04.2005 11:00 8.9 C 81 % 1014.2 hPa 0.0 l/m 0.0 km/h (0 Bft) N 0.00 h 142 W/m 5.8 C 8.9 C
13.04.2005 12:00 9.8 C 76 % 1013.8 hPa 0.0 l/m 0.3 km/h (0 Bft) O-SO 0.00 h 207 W/m 5.7 C 9.8 C
13.04.2005 13:00 10.8 C 73 % 1012.9 hPa 0.0 l/m 4.0 km/h (1 Bft) O-SO 0.00 h 216 W/m 6.1 C 10.8 C
13.04.2005 14:00 11.3 C 65 % 1012.8 hPa 0.0 l/m 0.8 km/h (0 Bft) O-SO 0.00 h 196 W/m 4.9 C 11.3 C
13.04.2005 15:00 12.2 C 63 % 1011.9 hPa 0.0 l/m 0.0 km/h (0 Bft) N 0.00 h 263 W/m 5.4 C 12.2 C
13.04.2005 16:00 12.2 C 62 % 1011.7 hPa 0.0 l/m 0.2 km/h (0 Bft) N 0.00 h 140 W/m 5.2 C 12.2 C
13.04.2005 17:00 12.3 C 61 % 1011.7 hPa 0.0 l/m 0.0 km/h (0 Bft) N 0.00 h 109 W/m 4.9 C 12.3 C
13.04.2005 18:00 12.2 C 63 % 1010.8 hPa 0.0 l/m 0.0 km/h (0 Bft) N 0.00 h 77 W/m 5.3 C 12.2 C
13.04.2005 19:00 11.3 C 68 % 1010.8 hPa 0.0 l/m 0.0 km/h (0 Bft) N 0.00 h 27 W/m 5.6 C 11.3 C
13.04.2005 20:00 10.0 C 76 % 1010.9 hPa 0.0 l/m 2.0 km/h (1 Bft) N-NO 0.00 h 4 W/m 6.0 C 9.9 C
13.04.2005 21:00 9.3 C 80 % 1011.0 hPa 0.0 l/m 5.3 km/h (1 Bft) O-SO 0.00 h 0 W/m 6.0 C 8.6 C
13.04.2005 22:00 8.3 C 84 % 1011.2 hPa 0.0 l/m 5.5 km/h (1 Bft) O-SO 0.00 h 0 W/m 5.8 C 7.7 C
13.04.2005 23:00 6.8 C 89 % 1011.4 hPa 0.0 l/m 6.0 km/h (2 Bft) O-SO 0.00 h 0 W/m 5.1 C 5.8 C
14.04.2005 00:00 5.3 C 94 % 1011.6 hPa 0.0 l/m 2.8 km/h (1 Bft) O-SO 0.00 h 0 W/m 4.5 C 5.0 C
14.04.2005 01:00 4.3 C 98 % 1011.7 hPa 0.0 l/m 2.4 km/h (1 Bft) O-SO 0.00 h 0 W/m 4.0 C 4.1 C
14.04.2005 02:00 3.3 C 100 % 1010.9 hPa 0.0 l/m 0.5 km/h (0 Bft) O-SO 0.00 h 0 W/m 3.3 C 3.3 C
14.04.2005 03:00 2.6 C 100 % 1010.9 hPa 0.0 l/m 2.1 km/h (1 Bft) O-SO 0.00 h 0 W/m 2.6 C 2.5 C
14.04.2005 04:00 2.4 C 100 % 1011.0 hPa 0.0 l/m 0.4 km/h (0 Bft) O-SO 0.00 h 0 W/m 2.4 C 2.4 C
14.04.2005 05:00 1.8 C 100 % 1011.0 hPa 0.0 l/m 0.0 km/h (0 Bft) N 0.00 h 0 W/m 1.8 C 1.8 C
14.04.2005 06:00 1.6 C 100 % 1011.1 hPa 0.0 l/m 0.2 km/h (0 Bft) O-SO 0.00 h 10 W/m 1.6 C 1.6 C
14.04.2005 07:00 2.6 C 100 % 1010.9 hPa 0.0 l/m 0.0 km/h (0 Bft) N 0.10 h 66 W/m 2.6 C 2.6 C
14.04.2005 08:00 4.3 C 98 % 1010.7 hPa 0.0 l/m 0.0 km/h (0 Bft) NW 0.00 h 91 W/m 4.1 C 4.3 C
14.04.2005 09:00 5.7 C 94 % 1010.2 hPa 0.0 l/m 1.2 km/h (1 Bft) W-NW 0.60 h 319 W/m 4.8 C 5.5 C
14.04.2005 10:00 8.4 C 83 % 1009.2 hPa 0.0 l/m 0.3 km/h (0 Bft) W-NW 1.00 h 536 W/m 5.6 C 8.4 C
14.04.2005 11:00 11.7 C 70 % 1008.6 hPa 0.0 l/m 2.9 km/h (1 Bft) W-NW 1.00 h 658 W/m 6.3 C 11.7 C
14.04.2005 12:00 14.3 C 59 % 1007.3 hPa 0.0 l/m 3.6 km/h (1 Bft) W-NW 1.00 h 746 W/m 6.4 C 14.3 C
14.04.2005 13:00 16.3 C 50 % 1006.3 hPa 0.0 l/m 5.7 km/h (1 Bft) O-SO 1.00 h 774 W/m 5.7 C 16.3 C
14.04.2005 14:00 18.1 C 43 % 1005.7 hPa 0.0 l/m 4.6 km/h (1 Bft) O-SO 1.00 h 731 W/m 5.4 C 18.1 C
14.04.2005 15:00 19.2 C 37 % 1004.9 hPa 0.0 l/m 7.1 km/h (2 Bft) O-SO 0.83 h 600 W/m 4.2 C 19.2 C
14.04.2005 16:00 19.9 C 34 % 1004.4 hPa 0.0 l/m 11.4 km/h (2 Bft) W 1.00 h 585 W/m 3.5 C 19.9 C
14.04.2005 17:00 19.8 C 34 % 1004.5 hPa 0.0 l/m 12.4 km/h (3 Bft) S 1.00 h 434 W/m 3.7 C 19.8 C
14.04.2005 18:00 18.4 C 39 % 1003.6 hPa 0.0 l/m 8.1 km/h (2 Bft) SO 1.00 h 276 W/m 4.3 C 18.4 C
14.04.2005 19:00 16.3 C 46 % 1003.9 hPa 0.0 l/m 5.4 km/h (1 Bft) SO 0.60 h 82 W/m 4.7 C 16.3 C
14.04.2005 20:00 13.3 C 59 % 1004.6 hPa 0.0 l/m 6.0 km/h (2 Bft) O-SO 0.03 h 10 W/m 5.4 C 13.3 C
14.04.2005 21:00 10.9 C 69 % 1005.6 hPa 0.0 l/m 3.3 km/h (1 Bft) O-SO 0.00 h 0 W/m 5.4 C 10.8 C
14.04.2005 22:00 9.0 C 79 % 1005.9 hPa 0.0 l/m 1.6 km/h (1 Bft) O-SO 0.00 h 0 W/m 5.5 C 8.8 C
14.04.2005 23:00 7.5 C 86 % 1006.1 hPa 0.0 l/m 1.1 km/h (1 Bft) O-SO 0.00 h 0 W/m 5.3 C 7.3 C
15.04.2005 00:00 6.4 C 92 % 1006.2 hPa 0.0 l/m 0.2 km/h (0 Bft) O-SO 0.00 h 0 W/m 5.2 C 6.4 C
15.04.2005 01:00 5.7 C 95 % 1006.3 hPa 0.0 l/m 0.1 km/h (0 Bft) N 0.00 h 0 W/m 4.9 C 5.7 C
15.04.2005 02:00 4.9 C 98 % 1006.2 hPa 0.0 l/m 0.9 km/h (0 Bft) O-SO 0.00 h 0 W/m 4.5 C 4.9 C
15.04.2005 03:00 4.5 C 100 % 1005.5 hPa 0.0 l/m 1.5 km/h (1 Bft) O-SO 0.00 h 0 W/m 4.4 C 4.2 C
15.04.2005 04:00 3.8 C 100 % 1005.6 hPa 0.0 l/m 0.1 km/h (0 Bft) O-SO 0.00 h 0 W/m 3.7 C 3.8 C
15.04.2005 05:00 3.2 C 100 % 1005.3 hPa 0.0 l/m 0.4 km/h (0 Bft) O 0.00 h 0 W/m 3.2 C 3.2 C
15.04.2005 06:00 3.1 C 100 % 1004.6 hPa 0.0 l/m 0.9 km/h (0 Bft) O-SO 0.10 h 17 W/m 3.1 C 2.9 C
15.04.2005 07:00 4.3 C 99 % 1004.5 hPa 0.0 l/m 0.0 km/h (0 Bft) N 0.70 h 92 W/m 4.2 C 4.3 C
15.04.2005 08:00 6.4 C 92 % 1004.2 hPa 0.0 l/m 0.0 km/h (0 Bft) N 0.37 h 175 W/m 5.2 C 6.4 C
15.04.2005 09:00 9.3 C 79 % 1003.8 hPa 0.0 l/m 0.1 km/h (0 Bft) N 0.90 h 429 W/m 5.9 C 9.3 C
15.04.2005 10:00 12.5 C 68 % 1003.3 hPa 0.0 l/m 3.0 km/h (1 Bft) W-NW 0.80 h 525 W/m 6.7 C 12.5 C
15.04.2005 11:00 15.5 C 54 % 1002.9 hPa 0.0 l/m 2.6 km/h (1 Bft) W 1.00 h 696 W/m 6.0 C 15.5 C
15.04.2005 12:00 17.5 C 47 % 1002.7 hPa 0.0 l/m 3.6 km/h (1 Bft) NW 1.00 h 764 W/m 6.0 C 17.5 C
15.04.2005 13:00 19.1 C 41 % 1001.4 hPa 0.0 l/m 14.0 km/h (3 Bft) W-NW 1.00 h 785 W/m 5.7 C 19.1 C
15.04.2005 14:00 19.5 C 40 % 1001.4 hPa 0.0 l/m 25.1 km/h (4 Bft) W-NW 1.00 h 757 W/m 5.6 C 19.5 C
15.04.2005 15:00 18.7 C 47 % 1001.5 hPa 0.0 l/m 35.3 km/h (5 Bft) W-NW 1.00 h 684 W/m 7.2 C 18.7 C
15.04.2005 16:00 16.9 C 51 % 1001.7 hPa 0.0 l/m 38.6 km/h (5 Bft) NW 1.00 h 550 W/m 6.6 C 16.9 C
15.04.2005 17:00 14.9 C 55 % 1002.5 hPa 0.0 l/m 29.3 km/h (5 Bft) NW 0.30 h 238 W/m 6.0 C 14.9 C
15.04.2005 18:00 13.4 C 58 % 1003.2 hPa 0.0 l/m 27.3 km/h (4 Bft) NW 0.43 h 148 W/m 5.3 C 13.4 C
15.04.2005 19:00 11.4 C 64 % 1003.5 hPa 0.0 l/m 24.8 km/h (4 Bft) NW 0.00 h 42 W/m 4.8 C 11.4 C
15.04.2005 20:00 9.8 C 69 % 1004.5 hPa 0.0 l/m 21.0 km/h (4 Bft) NW 0.00 h 9 W/m 4.3 C 8.1 C
15.04.2005 21:00 8.8 C 72 % 1005.1 hPa 0.0 l/m 3.4 km/h (1 Bft) O-SO 0.00 h 0 W/m 4.1 C 8.4 C
15.04.2005 22:00 8.2 C 77 % 1006.0 hPa 0.0 l/m 1.1 km/h (1 Bft) W 0.00 h 0 W/m 4.3 C 8.1 C
15.04.2005 23:00 8.3 C 77 % 1005.2 hPa 0.0 l/m 0.3 km/h (0 Bft) NW 0.00 h 0 W/m 4.4 C 8.3 C
16.04.2005 00:00 8.7 C 75 % 1004.9 hPa 0.0 l/m 0.6 km/h (0 Bft) NW 0.00 h 0 W/m 4.5 C 8.6 C
16.04.2005 01:00 8.6 C 76 % 1004.9 hPa 0.0 l/m 0.5 km/h (0 Bft) NW 0.00 h 0 W/m 4.6 C 8.6 C
16.04.2005 02:00 8.4 C 78 % 1004.1 hPa 0.0 l/m 0.2 km/h (0 Bft) N-NW 0.00 h 0 W/m 4.8 C 8.4 C
16.04.2005 03:00 8.0 C 80 % 1002.9 hPa 0.0 l/m 0.1 km/h (0 Bft) N 0.00 h 0 W/m 4.8 C 8.0 C
16.04.2005 04:00 7.4 C 85 % 1002.1 hPa 0.0 l/m 0.0 km/h (0 Bft) N 0.00 h 0 W/m 5.2 C 7.4 C
16.04.2005 05:00 7.5 C 87 % 1001.1 hPa 0.0 l/m 0.1 km/h (0 Bft) N 0.00 h 0 W/m 5.4 C 7.5 C
16.04.2005 06:00 7.1 C 91 % 1000.0 hPa 0.0 l/m 0.0 km/h (0 Bft) N 0.00 h 4 W/m 5.6 C 7.1 C
16.04.2005 07:00 7.4 C 89 % 999.7 hPa 0.0 l/m 0.0 km/h (0 Bft) N 0.00 h 20 W/m 5.8 C 7.4 C
16.04.2005 08:00 7.9 C 88 % 998.7 hPa 0.0 l/m 0.1 km/h (0 Bft) W-NW 0.00 h 40 W/m 6.0 C 7.9 C
16.04.2005 09:00 9.0 C 84 % 997.7 hPa 0.0 l/m 0.7 km/h (0 Bft) W-NW 0.23 h 208 W/m 6.3 C 8.9 C
16.04.2005 10:00 11.0 C 75 % 997.2 hPa 0.0 l/m 0.4 km/h (0 Bft) W-NW 0.37 h 365 W/m 6.8 C 11.0 C
16.04.2005 11:00 12.7 C 71 % 996.0 hPa 0.0 l/m 1.7 km/h (1 Bft) NW 0.60 h 451 W/m 7.6 C 12.7 C
16.04.2005 12:00 13.1 C 69 % 995.2 hPa 0.0 l/m 7.8 km/h (2 Bft) NW 0.17 h 408 W/m 7.5 C 13.1 C
16.04.2005 13:00 12.7 C 70 % 995.0 hPa 0.0 l/m 15.0 km/h (3 Bft) W-NW 0.00 h 285 W/m 7.3 C 12.7 C
16.04.2005 14:00 12.0 C 74 % 994.8 hPa 0.0 l/m 4.1 km/h (1 Bft) N-NW 0.00 h 193 W/m 7.5 C 12.0 C
16.04.2005 15:00 12.8 C 73 % 993.9 hPa 0.0 l/m 2.9 km/h (1 Bft) W-NW 0.00 h 270 W/m 8.0 C 12.8 C
16.04.2005 16:00 13.0 C 73 % 993.3 hPa 0.0 l/m 4.9 km/h (1 Bft) W-NW 0.00 h 113 W/m 8.3 C 13.0 C
16.04.2005 17:00 12.3 C 77 % 993.1 hPa 0.0 l/m 6.4 km/h (2 Bft) W-NW 0.00 h 127 W/m 8.3 C 12.3 C
16.04.2005 18:00 11.7 C 77 % 993.9 hPa 0.0 l/m 5.9 km/h (2 Bft) W-NW 0.00 h 86 W/m 7.8 C 11.7 C
16.04.2005 19:00 10.1 C 75 % 995.1 hPa 0.0 l/m 14.9 km/h (3 Bft) S-SW 0.00 h 8 W/m 5.8 C 9.5 C
16.04.2005 20:00 8.4 C 78 % 996.2 hPa 0.0 l/m 18.8 km/h (3 Bft) SO 0.00 h 2 W/m 4.7 C 5.7 C
16.04.2005 21:00 6.9 C 87 % 997.5 hPa 1.5 l/m 13.4 km/h (3 Bft) SO 0.00 h 0 W/m 4.9 C 4.6 C
16.04.2005 22:00 5.4 C 99 % 998.1 hPa 0.9 l/m 3.5 km/h (1 Bft) S-SO 0.00 h 0 W/m 5.2 C 4.9 C
16.04.2005 23:00 4.5 C 100 % 998.2 hPa 0.9 l/m 9.0 km/h (2 Bft) SO 0.00 h 0 W/m 4.4 C 2.4 C
17.04.2005 00:00 3.7 C 100 % 998.3 hPa 2.7 l/m 13.2 km/h (3 Bft) SO 0.00 h 0 W/m 3.7 C 0.6 C
17.04.2005 01:00 3.4 C 100 % 998.3 hPa 2.4 l/m 9.9 km/h (2 Bft) O-SO 0.00 h 0 W/m 3.4 C 1.0 C
17.04.2005 02:00 3.0 C 100 % 997.9 hPa 1.2 l/m 9.7 km/h (2 Bft) O 0.00 h 0 W/m 3.0 C 0.7 C
17.04.2005 03:00 2.9 C 100 % 997.4 hPa 0.6 l/m 8.8 km/h (2 Bft) SO 0.00 h 0 W/m 2.9 C 0.7 C
17.04.2005 04:00 2.2 C 100 % 997.5 hPa 3.3 l/m 15.9 km/h (3 Bft) O-SO 0.00 h 0 W/m 2.2 C -1.8 C
17.04.2005 05:00 1.3 C 100 % 997.6 hPa 2.1 l/m 5.0 km/h (1 Bft) SO 0.00 h 0 W/m 1.3 C 0.1 C
17.04.2005 06:00 0.6 C 100 % 997.7 hPa 0.9 l/m 3.8 km/h (1 Bft) SO 0.00 h 7 W/m 0.6 C -0.4 C
17.04.2005 07:00 1.5 C 100 % 997.5 hPa 1.5 l/m 7.8 km/h (2 Bft) SO 0.00 h 41 W/m 1.5 C -0.6 C
17.04.2005 08:00 2.9 C 99 % 998.4 hPa 1.5 l/m 3.5 km/h (1 Bft) O-SO 0.00 h 117 W/m 2.7 C 2.2 C
17.04.2005 09:00 3.9 C 97 % 998.4 hPa 0.3 l/m 4.4 km/h (1 Bft) NW 0.13 h 243 W/m 3.4 C 3.0 C
17.04.2005 10:00 5.1 C 92 % 999.1 hPa 0.0 l/m 8.7 km/h (2 Bft) SO 0.00 h 263 W/m 3.8 C 3.4 C
17.04.2005 11:00 6.4 C 86 % 999.0 hPa 0.0 l/m 10.6 km/h (2 Bft) SO 0.43 h 458 W/m 4.1 C 4.3 C
17.04.2005 12:00 8.1 C 78 % 999.5 hPa 0.0 l/m 10.1 km/h (2 Bft) S-SO 0.97 h 620 W/m 4.5 C 6.5 C
17.04.2005 13:00 8.5 C 75 % 999.7 hPa 0.0 l/m 13.5 km/h (3 Bft) SO 0.27 h 430 W/m 4.3 C 6.4 C
17.04.2005 14:00 8.6 C 75 % 999.7 hPa 0.0 l/m 10.2 km/h (2 Bft) SO 0.00 h 317 W/m 4.4 C 7.0 C
17.04.2005 15:00 8.9 C 73 % 999.8 hPa 0.0 l/m 13.2 km/h (3 Bft) SO 0.13 h 370 W/m 4.3 C 6.9 C
17.04.2005 16:00 9.1 C 72 % 1000.7 hPa 0.0 l/m 16.5 km/h (3 Bft) SO 0.43 h 414 W/m 4.2 C 7.1 C
17.04.2005 17:00 7.3 C 78 % 1001.0 hPa 0.0 l/m 16.1 km/h (3 Bft) SO 0.00 h 147 W/m 3.7 C 4.6 C
17.04.2005 18:00 6.5 C 81 % 1002.1 hPa 0.0 l/m 15.8 km/h (3 Bft) SO 0.00 h 45 W/m 3.5 C 3.5 C
17.04.2005 19:00 5.9 C 83 % 1003.0 hPa 0.0 l/m 11.8 km/h (2 Bft) SO 0.00 h 11 W/m 3.3 C 3.6 C
17.04.2005 20:00 5.5 C 91 % 1003.3 hPa 0.0 l/m 7.1 km/h (2 Bft) S 0.00 h 2 W/m 4.1 C 4.1 C
17.04.2005 21:00 4.9 C 96 % 1004.4 hPa 0.9 l/m 4.9 km/h (1 Bft) S 0.00 h 0 W/m 4.3 C 4.1 C
17.04.2005 22:00 4.6 C 100 % 1004.4 hPa 0.6 l/m 7.8 km/h (2 Bft) SO 0.00 h 0 W/m 4.6 C 2.9 C
17.04.2005 23:00 4.6 C 100 % 1004.4 hPa 0.9 l/m 6.7 km/h (2 Bft) O-SO 0.00 h 0 W/m 4.6 C 3.2 C
Min-Datum _ 17.04.05 14.04.05 16.04.05 - 11.04.05 - - - 11.04.05 17.04.05
_ Min-Zeit 06:33 16:39 16:27 - 00:01 - - - 19:55 06:01
Minimum _ 0.4 C 33 % 992.9 hPa - 0.0 km/h (0 Bft) - - - -1.4 C -3.6 C
Max-Datum _ 14.04.05 14.04.05 11.04.05 17.04.05 15.04.05 - 11.04.05 17.04.05 14.04.05 14.04.05
_ Max-Zeit 17:07 01:47 01:01 04:03 16:17 - 09:32 12:29 13:05 17:07
Maximum _ 20.4 C 100 % 1026.2 hPa 3.3 l/m 51.8 km/h
NW (7 Bft)
- 0.05 h 1014 W/m 8.9 C 20.4 C
Durchschnitt _ 8.7 C 75 % 1009.4 hPa #22.2 l/m 5.9 km/h (2 Bft) O-SO #31:12 h 249 W/m 4.0 C 8.3 C

Durchschnitt Minimum Temp.8.2 C
Durchschnitt Maximum Temp.9.3 C
© Kaiko 2005